sensor_id;sensor_type;location;lat;lon;timestamp;P1;durP1;ratioP1;P2;durP2;ratioP2
8331;SDS011;4203;48.144;14.118;2023-01-08T00:01:11;17.40;;;12.30;;
8331;SDS011;4203;48.144;14.118;2023-01-08T00:03:40;14.60;;;12.17;;
8331;SDS011;4203;48.144;14.118;2023-01-08T00:06:09;13.23;;;11.83;;
8331;SDS011;4203;48.144;14.118;2023-01-08T00:08:39;15.13;;;11.33;;
8331;SDS011;4203;48.144;14.118;2023-01-08T00:11:06;12.43;;;10.87;;
8331;SDS011;4203;48.144;14.118;2023-01-08T00:13:34;13.60;;;11.30;;
8331;SDS011;4203;48.144;14.118;2023-01-08T00:16:02;15.43;;;11.80;;
8331;SDS011;4203;48.144;14.118;2023-01-08T00:18:29;12.67;;;10.73;;
8331;SDS011;4203;48.144;14.118;2023-01-08T00:20:58;13.70;;;11.20;;
8331;SDS011;4203;48.144;14.118;2023-01-08T00:23:26;12.97;;;10.27;;
8331;SDS011;4203;48.144;14.118;2023-01-08T00:25:53;12.43;;;9.67;;
8331;SDS011;4203;48.144;14.118;2023-01-08T00:28:20;11.20;;;9.70;;
8331;SDS011;4203;48.144;14.118;2023-01-08T00:30:48;11.20;;;9.63;;
8331;SDS011;4203;48.144;14.118;2023-01-08T00:33:15;12.50;;;10.27;;
8331;SDS011;4203;48.144;14.118;2023-01-08T00:35:43;13.30;;;10.70;;
8331;SDS011;4203;48.144;14.118;2023-01-08T00:38:11;13.07;;;9.90;;
8331;SDS011;4203;48.144;14.118;2023-01-08T00:40:39;11.53;;;10.33;;
8331;SDS011;4203;48.144;14.118;2023-01-08T00:43:06;18.60;;;11.23;;
8331;SDS011;4203;48.144;14.118;2023-01-08T00:45:34;12.63;;;10.83;;
8331;SDS011;4203;48.144;14.118;2023-01-08T00:48:01;26.93;;;11.70;;
8331;SDS011;4203;48.144;14.118;2023-01-08T00:50:28;54.27;;;11.33;;
8331;SDS011;4203;48.144;14.118;2023-01-08T00:52:56;14.10;;;10.40;;
8331;SDS011;4203;48.144;14.118;2023-01-08T00:55:25;37.43;;;12.00;;
8331;SDS011;4203;48.144;14.118;2023-01-08T00:57:52;26.53;;;11.43;;
8331;SDS011;4203;48.144;14.118;2023-01-08T01:00:19;41.87;;;12.40;;
8331;SDS011;4203;48.144;14.118;2023-01-08T01:02:46;14.57;;;10.60;;
8331;SDS011;4203;48.144;14.118;2023-01-08T01:05:13;41.27;;;11.93;;
8331;SDS011;4203;48.144;14.118;2023-01-08T01:07:41;70.80;;;12.93;;
8331;SDS011;4203;48.144;14.118;2023-01-08T01:10:09;98.30;;;17.33;;
8331;SDS011;4203;48.144;14.118;2023-01-08T01:12:39;42.40;;;13.43;;
8331;SDS011;4203;48.144;14.118;2023-01-08T01:15:07;48.90;;;12.90;;
8331;SDS011;4203;48.144;14.118;2023-01-08T01:17:37;83.97;;;15.47;;
8331;SDS011;4203;48.144;14.118;2023-01-08T01:20:05;128.00;;;18.83;;
8331;SDS011;4203;48.144;14.118;2023-01-08T01:22:33;62.73;;;13.63;;
8331;SDS011;4203;48.144;14.118;2023-01-08T01:25:01;160.10;;;21.43;;
8331;SDS011;4203;48.144;14.118;2023-01-08T01:27:28;77.43;;;18.50;;
8331;SDS011;4203;48.144;14.118;2023-01-08T01:29:57;14.80;;;12.13;;
8331;SDS011;4203;48.144;14.118;2023-01-08T01:32:24;54.50;;;15.40;;
8331;SDS011;4203;48.144;14.118;2023-01-08T01:34:51;81.90;;;15.20;;
8331;SDS011;4203;48.144;14.118;2023-01-08T01:37:19;89.70;;;16.43;;
8331;SDS011;4203;48.144;14.118;2023-01-08T01:39:46;80.60;;;15.17;;
8331;SDS011;4203;48.144;14.118;2023-01-08T01:42:13;106.73;;;17.87;;
8331;SDS011;4203;48.144;14.118;2023-01-08T01:45:03;83.57;;;15.43;;
8331;SDS011;4203;48.144;14.118;2023-01-08T01:47:43;52.33;;;14.23;;
8331;SDS011;4203;48.144;14.118;2023-01-08T01:50:13;26.40;;;12.23;;
8331;SDS011;4203;48.144;14.118;2023-01-08T01:52:45;28.13;;;13.33;;
8331;SDS011;4203;48.144;14.118;2023-01-08T01:55:18;23.80;;;12.97;;
8331;SDS011;4203;48.144;14.118;2023-01-08T01:57:48;15.93;;;11.97;;
8331;SDS011;4203;48.144;14.118;2023-01-08T02:00:20;58.37;;;17.10;;
8331;SDS011;4203;48.144;14.118;2023-01-08T02:02:47;18.53;;;12.87;;
8331;SDS011;4203;48.144;14.118;2023-01-08T02:05:15;22.37;;;12.70;;
8331;SDS011;4203;48.144;14.118;2023-01-08T02:07:46;36.13;;;12.93;;
8331;SDS011;4203;48.144;14.118;2023-01-08T02:10:21;35.60;;;13.63;;
8331;SDS011;4203;48.144;14.118;2023-01-08T02:12:58;29.57;;;13.17;;
8331;SDS011;4203;48.144;14.118;2023-01-08T02:15:33;22.53;;;11.50;;
8331;SDS011;4203;48.144;14.118;2023-01-08T02:18:06;15.03;;;11.80;;
8331;SDS011;4203;48.144;14.118;2023-01-08T02:20:38;18.20;;;12.17;;
8331;SDS011;4203;48.144;14.118;2023-01-08T02:23:11;46.00;;;13.47;;
8331;SDS011;4203;48.144;14.118;2023-01-08T02:25:56;21.33;;;11.67;;
8331;SDS011;4203;48.144;14.118;2023-01-08T02:28:30;20.50;;;11.83;;
8331;SDS011;4203;48.144;14.118;2023-01-08T02:31:02;30.53;;;12.83;;
8331;SDS011;4203;48.144;14.118;2023-01-08T02:33:30;16.37;;;11.17;;
8331;SDS011;4203;48.144;14.118;2023-01-08T02:36:12;27.33;;;11.90;;
8331;SDS011;4203;48.144;14.118;2023-01-08T02:38:56;56.70;;;13.50;;
8331;SDS011;4203;48.144;14.118;2023-01-08T02:41:40;27.17;;;11.70;;
8331;SDS011;4203;48.144;14.118;2023-01-08T02:44:19;30.67;;;12.37;;
8331;SDS011;4203;48.144;14.118;2023-01-08T02:46:51;49.03;;;16.07;;
8331;SDS011;4203;48.144;14.118;2023-01-08T02:49:23;53.83;;;14.87;;
8331;SDS011;4203;48.144;14.118;2023-01-08T02:51:54;61.80;;;17.37;;
8331;SDS011;4203;48.144;14.118;2023-01-08T02:54:25;63.80;;;16.57;;
8331;SDS011;4203;48.144;14.118;2023-01-08T02:56:57;70.70;;;17.80;;
8331;SDS011;4203;48.144;14.118;2023-01-08T02:59:28;111.90;;;20.07;;
8331;SDS011;4203;48.144;14.118;2023-01-08T03:01:57;84.33;;;19.37;;
8331;SDS011;4203;48.144;14.118;2023-01-08T03:04:26;69.83;;;19.23;;
8331;SDS011;4203;48.144;14.118;2023-01-08T03:06:57;67.00;;;17.57;;
8331;SDS011;4203;48.144;14.118;2023-01-08T03:09:24;99.70;;;19.73;;
8331;SDS011;4203;48.144;14.118;2023-01-08T03:11:52;57.07;;;16.07;;
8331;SDS011;4203;48.144;14.118;2023-01-08T03:14:29;53.60;;;16.67;;
8331;SDS011;4203;48.144;14.118;2023-01-08T03:17:03;62.10;;;16.70;;
8331;SDS011;4203;48.144;14.118;2023-01-08T03:19:35;35.93;;;15.80;;
8331;SDS011;4203;48.144;14.118;2023-01-08T03:22:06;72.90;;;18.93;;
8331;SDS011;4203;48.144;14.118;2023-01-08T03:24:36;55.50;;;16.20;;
8331;SDS011;4203;48.144;14.118;2023-01-08T03:27:04;42.77;;;18.10;;
8331;SDS011;4203;48.144;14.118;2023-01-08T03:29:36;44.17;;;17.27;;
8331;SDS011;4203;48.144;14.118;2023-01-08T03:32:07;73.90;;;19.73;;
8331;SDS011;4203;48.144;14.118;2023-01-08T03:34:36;25.77;;;15.40;;
8331;SDS011;4203;48.144;14.118;2023-01-08T03:37:06;21.17;;;15.07;;
8331;SDS011;4203;48.144;14.118;2023-01-08T03:39:36;50.53;;;17.27;;
8331;SDS011;4203;48.144;14.118;2023-01-08T03:42:08;39.70;;;16.23;;
8331;SDS011;4203;48.144;14.118;2023-01-08T03:44:41;34.00;;;15.80;;
8331;SDS011;4203;48.144;14.118;2023-01-08T03:47:09;36.20;;;16.60;;
8331;SDS011;4203;48.144;14.118;2023-01-08T03:49:37;73.87;;;18.13;;
8331;SDS011;4203;48.144;14.118;2023-01-08T03:52:07;39.97;;;18.43;;
8331;SDS011;4203;48.144;14.118;2023-01-08T03:54:35;36.87;;;18.13;;
8331;SDS011;4203;48.144;14.118;2023-01-08T03:57:03;24.33;;;15.30;;
8331;SDS011;4203;48.144;14.118;2023-01-08T03:59:31;22.87;;;16.60;;
8331;SDS011;4203;48.144;14.118;2023-01-08T04:02:00;39.90;;;16.73;;
8331;SDS011;4203;48.144;14.118;2023-01-08T04:04:27;38.20;;;17.67;;
8331;SDS011;4203;48.144;14.118;2023-01-08T04:06:54;39.20;;;17.90;;
8331;SDS011;4203;48.144;14.118;2023-01-08T04:09:22;29.17;;;16.20;;
8331;SDS011;4203;48.144;14.118;2023-01-08T04:11:49;74.57;;;20.53;;
8331;SDS011;4203;48.144;14.118;2023-01-08T04:14:16;72.30;;;20.47;;
8331;SDS011;4203;48.144;14.118;2023-01-08T04:16:44;55.73;;;19.73;;
8331;SDS011;4203;48.144;14.118;2023-01-08T04:19:13;63.57;;;20.23;;
8331;SDS011;4203;48.144;14.118;2023-01-08T04:21:40;60.37;;;20.67;;
8331;SDS011;4203;48.144;14.118;2023-01-08T04:24:07;76.23;;;18.70;;
8331;SDS011;4203;48.144;14.118;2023-01-08T04:26:34;40.47;;;18.90;;
8331;SDS011;4203;48.144;14.118;2023-01-08T04:29:01;40.93;;;17.87;;
8331;SDS011;4203;48.144;14.118;2023-01-08T04:31:29;58.97;;;19.00;;
8331;SDS011;4203;48.144;14.118;2023-01-08T04:33:56;125.10;;;21.97;;
8331;SDS011;4203;48.144;14.118;2023-01-08T04:36:25;87.13;;;19.17;;
8331;SDS011;4203;48.144;14.118;2023-01-08T04:38:52;66.80;;;19.20;;
8331;SDS011;4203;48.144;14.118;2023-01-08T04:41:19;51.27;;;18.23;;
8331;SDS011;4203;48.144;14.118;2023-01-08T04:43:46;69.53;;;17.93;;
8331;SDS011;4203;48.144;14.118;2023-01-08T04:46:13;43.13;;;17.30;;
8331;SDS011;4203;48.144;14.118;2023-01-08T04:48:40;77.20;;;19.57;;
8331;SDS011;4203;48.144;14.118;2023-01-08T04:51:07;50.73;;;17.40;;
8331;SDS011;4203;48.144;14.118;2023-01-08T04:53:36;45.77;;;17.57;;
8331;SDS011;4203;48.144;14.118;2023-01-08T04:56:05;86.60;;;18.50;;
8331;SDS011;4203;48.144;14.118;2023-01-08T04:58:34;35.83;;;15.83;;
8331;SDS011;4203;48.144;14.118;2023-01-08T05:01:08;76.30;;;19.53;;
8331;SDS011;4203;48.144;14.118;2023-01-08T05:03:36;61.07;;;16.67;;
8331;SDS011;4203;48.144;14.118;2023-01-08T05:06:04;57.07;;;16.23;;
8331;SDS011;4203;48.144;14.118;2023-01-08T05:08:33;36.97;;;15.90;;
8331;SDS011;4203;48.144;14.118;2023-01-08T05:11:02;22.40;;;15.27;;
8331;SDS011;4203;48.144;14.118;2023-01-08T05:13:29;32.07;;;16.50;;
8331;SDS011;4203;48.144;14.118;2023-01-08T05:15:57;33.17;;;15.20;;
8331;SDS011;4203;48.144;14.118;2023-01-08T05:18:25;28.13;;;14.57;;
8331;SDS011;4203;48.144;14.118;2023-01-08T05:20:53;25.73;;;14.67;;
8331;SDS011;4203;48.144;14.118;2023-01-08T05:23:20;19.97;;;14.87;;
8331;SDS011;4203;48.144;14.118;2023-01-08T05:25:48;30.80;;;13.80;;
8331;SDS011;4203;48.144;14.118;2023-01-08T05:28:16;20.80;;;13.27;;
8331;SDS011;4203;48.144;14.118;2023-01-08T05:30:43;31.23;;;14.97;;
8331;SDS011;4203;48.144;14.118;2023-01-08T05:33:10;23.10;;;13.70;;
8331;SDS011;4203;48.144;14.118;2023-01-08T05:35:38;17.20;;;12.70;;
8331;SDS011;4203;48.144;14.118;2023-01-08T05:38:05;23.70;;;13.17;;
8331;SDS011;4203;48.144;14.118;2023-01-08T05:40:32;33.43;;;12.70;;
8331;SDS011;4203;48.144;14.118;2023-01-08T05:43:01;37.00;;;13.03;;
8331;SDS011;4203;48.144;14.118;2023-01-08T05:45:29;38.23;;;12.33;;
8331;SDS011;4203;48.144;14.118;2023-01-08T05:47:57;23.37;;;12.90;;
8331;SDS011;4203;48.144;14.118;2023-01-08T05:50:24;38.03;;;12.73;;
8331;SDS011;4203;48.144;14.118;2023-01-08T05:52:51;24.37;;;11.47;;
8331;SDS011;4203;48.144;14.118;2023-01-08T05:55:18;22.87;;;11.37;;
8331;SDS011;4203;48.144;14.118;2023-01-08T05:57:46;16.03;;;11.43;;
8331;SDS011;4203;48.144;14.118;2023-01-08T06:00:15;18.83;;;11.10;;
8331;SDS011;4203;48.144;14.118;2023-01-08T06:02:44;20.00;;;10.23;;
8331;SDS011;4203;48.144;14.118;2023-01-08T06:05:12;19.00;;;11.10;;
8331;SDS011;4203;48.144;14.118;2023-01-08T06:07:39;22.50;;;11.40;;
8331;SDS011;4203;48.144;14.118;2023-01-08T06:10:06;12.80;;;10.43;;
8331;SDS011;4203;48.144;14.118;2023-01-08T06:12:34;24.67;;;11.23;;
8331;SDS011;4203;48.144;14.118;2023-01-08T06:15:01;17.10;;;11.00;;
8331;SDS011;4203;48.144;14.118;2023-01-08T06:17:31;16.90;;;9.83;;
8331;SDS011;4203;48.144;14.118;2023-01-08T06:19:59;24.87;;;10.37;;
8331;SDS011;4203;48.144;14.118;2023-01-08T06:22:26;15.20;;;9.10;;
8331;SDS011;4203;48.144;14.118;2023-01-08T06:24:54;15.57;;;8.87;;
8331;SDS011;4203;48.144;14.118;2023-01-08T06:27:21;13.93;;;8.77;;
8331;SDS011;4203;48.144;14.118;2023-01-08T06:29:48;13.73;;;8.97;;
8331;SDS011;4203;48.144;14.118;2023-01-08T06:32:15;13.57;;;9.20;;
8331;SDS011;4203;48.144;14.118;2023-01-08T06:34:44;12.97;;;9.47;;
8331;SDS011;4203;48.144;14.118;2023-01-08T06:37:11;14.30;;;10.13;;
8331;SDS011;4203;48.144;14.118;2023-01-08T06:39:38;18.27;;;9.07;;
8331;SDS011;4203;48.144;14.118;2023-01-08T06:42:05;16.00;;;9.07;;
8331;SDS011;4203;48.144;14.118;2023-01-08T06:44:32;13.37;;;9.60;;
8331;SDS011;4203;48.144;14.118;2023-01-08T06:47:00;29.17;;;10.13;;
8331;SDS011;4203;48.144;14.118;2023-01-08T06:49:27;19.53;;;10.33;;
8331;SDS011;4203;48.144;14.118;2023-01-08T06:51:55;27.65;;;11.15;;
8331;SDS011;4203;48.144;14.118;2023-01-08T06:54:22;21.27;;;9.30;;
8331;SDS011;4203;48.144;14.118;2023-01-08T06:56:49;34.63;;;10.23;;
8331;SDS011;4203;48.144;14.118;2023-01-08T06:59:17;13.63;;;9.77;;
8331;SDS011;4203;48.144;14.118;2023-01-08T07:01:44;48.33;;;11.57;;
8331;SDS011;4203;48.144;14.118;2023-01-08T07:04:11;52.67;;;10.83;;
8331;SDS011;4203;48.144;14.118;2023-01-08T07:06:38;50.83;;;12.63;;
8331;SDS011;4203;48.144;14.118;2023-01-08T07:09:07;27.43;;;11.07;;
8331;SDS011;4203;48.144;14.118;2023-01-08T07:11:36;69.37;;;15.13;;
8331;SDS011;4203;48.144;14.118;2023-01-08T07:14:03;46.17;;;11.60;;
8331;SDS011;4203;48.144;14.118;2023-01-08T07:16:30;32.23;;;11.73;;
8331;SDS011;4203;48.144;14.118;2023-01-08T07:18:57;23.47;;;10.30;;
8331;SDS011;4203;48.144;14.118;2023-01-08T07:21:24;40.63;;;11.10;;
8331;SDS011;4203;48.144;14.118;2023-01-08T07:23:51;18.43;;;10.37;;
8331;SDS011;4203;48.144;14.118;2023-01-08T07:26:20;15.13;;;10.80;;
8331;SDS011;4203;48.144;14.118;2023-01-08T07:28:47;15.70;;;9.73;;
8331;SDS011;4203;48.144;14.118;2023-01-08T07:31:14;36.17;;;11.43;;
8331;SDS011;4203;48.144;14.118;2023-01-08T07:33:41;40.50;;;11.17;;
8331;SDS011;4203;48.144;14.118;2023-01-08T07:36:09;16.07;;;9.17;;
8331;SDS011;4203;48.144;14.118;2023-01-08T07:38:36;26.07;;;10.70;;
8331;SDS011;4203;48.144;14.118;2023-01-08T07:41:03;21.20;;;9.57;;
8331;SDS011;4203;48.144;14.118;2023-01-08T07:43:32;46.50;;;12.43;;
8331;SDS011;4203;48.144;14.118;2023-01-08T07:46:00;30.40;;;11.03;;
8331;SDS011;4203;48.144;14.118;2023-01-08T07:48:28;18.97;;;10.67;;
8331;SDS011;4203;48.144;14.118;2023-01-08T07:50:59;31.83;;;10.53;;
8331;SDS011;4203;48.144;14.118;2023-01-08T07:53:27;44.87;;;11.73;;
8331;SDS011;4203;48.144;14.118;2023-01-08T07:55:57;37.53;;;10.70;;
8331;SDS011;4203;48.144;14.118;2023-01-08T07:58:25;18.50;;;9.80;;
8331;SDS011;4203;48.144;14.118;2023-01-08T08:00:55;24.97;;;10.00;;
8331;SDS011;4203;48.144;14.118;2023-01-08T08:03:22;23.73;;;10.20;;
8331;SDS011;4203;48.144;14.118;2023-01-08T08:05:50;22.67;;;11.53;;
8331;SDS011;4203;48.144;14.118;2023-01-08T08:08:17;16.20;;;10.97;;
8331;SDS011;4203;48.144;14.118;2023-01-08T08:10:45;24.43;;;10.93;;
8331;SDS011;4203;48.144;14.118;2023-01-08T08:13:12;28.57;;;11.97;;
8331;SDS011;4203;48.144;14.118;2023-01-08T08:15:39;30.70;;;11.40;;
8331;SDS011;4203;48.144;14.118;2023-01-08T08:18:08;35.37;;;12.63;;
8331;SDS011;4203;48.144;14.118;2023-01-08T08:20:35;16.87;;;10.73;;
8331;SDS011;4203;48.144;14.118;2023-01-08T08:23:04;20.50;;;11.03;;
8331;SDS011;4203;48.144;14.118;2023-01-08T08:25:33;24.20;;;10.90;;
8331;SDS011;4203;48.144;14.118;2023-01-08T08:28:01;19.07;;;10.83;;
8331;SDS011;4203;48.144;14.118;2023-01-08T08:30:31;23.60;;;10.70;;
8331;SDS011;4203;48.144;14.118;2023-01-08T08:33:00;26.80;;;11.57;;
8331;SDS011;4203;48.144;14.118;2023-01-08T08:35:30;21.37;;;10.80;;
8331;SDS011;4203;48.144;14.118;2023-01-08T08:37:58;35.90;;;11.70;;
8331;SDS011;4203;48.144;14.118;2023-01-08T08:40:26;19.57;;;11.03;;
8331;SDS011;4203;48.144;14.118;2023-01-08T08:42:56;20.20;;;12.00;;
8331;SDS011;4203;48.144;14.118;2023-01-08T08:45:24;23.07;;;10.60;;
8331;SDS011;4203;48.144;14.118;2023-01-08T08:47:52;19.53;;;10.63;;
8331;SDS011;4203;48.144;14.118;2023-01-08T08:50:20;15.90;;;10.73;;
8331;SDS011;4203;48.144;14.118;2023-01-08T08:52:49;16.57;;;11.03;;
8331;SDS011;4203;48.144;14.118;2023-01-08T08:55:16;16.53;;;10.90;;
8331;SDS011;4203;48.144;14.118;2023-01-08T08:57:44;18.67;;;12.10;;
8331;SDS011;4203;48.144;14.118;2023-01-08T09:00:13;16.97;;;11.03;;
8331;SDS011;4203;48.144;14.118;2023-01-08T09:02:41;17.33;;;11.37;;
8331;SDS011;4203;48.144;14.118;2023-01-08T09:05:09;16.27;;;11.37;;
8331;SDS011;4203;48.144;14.118;2023-01-08T09:07:38;32.63;;;17.83;;
8331;SDS011;4203;48.144;14.118;2023-01-08T09:10:07;23.93;;;13.63;;
8331;SDS011;4203;48.144;14.118;2023-01-08T09:12:34;18.77;;;11.20;;
8331;SDS011;4203;48.144;14.118;2023-01-08T09:15:01;19.37;;;12.07;;
8331;SDS011;4203;48.144;14.118;2023-01-08T09:17:29;17.13;;;11.43;;
8331;SDS011;4203;48.144;14.118;2023-01-08T09:19:58;15.70;;;10.23;;
8331;SDS011;4203;48.144;14.118;2023-01-08T09:22:25;14.57;;;10.13;;
8331;SDS011;4203;48.144;14.118;2023-01-08T09:24:52;15.03;;;10.30;;
8331;SDS011;4203;48.144;14.118;2023-01-08T09:27:20;16.73;;;11.07;;
8331;SDS011;4203;48.144;14.118;2023-01-08T09:29:47;15.87;;;10.27;;
8331;SDS011;4203;48.144;14.118;2023-01-08T09:32:15;15.33;;;10.30;;
8331;SDS011;4203;48.144;14.118;2023-01-08T09:34:42;16.63;;;10.63;;
8331;SDS011;4203;48.144;14.118;2023-01-08T09:37:09;16.27;;;10.07;;
8331;SDS011;4203;48.144;14.118;2023-01-08T09:39:36;21.33;;;11.60;;
8331;SDS011;4203;48.144;14.118;2023-01-08T09:42:04;18.10;;;10.67;;
8331;SDS011;4203;48.144;14.118;2023-01-08T09:44:34;17.23;;;10.90;;
8331;SDS011;4203;48.144;14.118;2023-01-08T09:47:04;16.43;;;10.73;;
8331;SDS011;4203;48.144;14.118;2023-01-08T09:49:41;29.30;;;13.33;;
8331;SDS011;4203;48.144;14.118;2023-01-08T09:52:11;16.07;;;11.07;;
8331;SDS011;4203;48.144;14.118;2023-01-08T09:54:40;14.40;;;10.13;;
8331;SDS011;4203;48.144;14.118;2023-01-08T09:57:09;16.27;;;9.93;;
8331;SDS011;4203;48.144;14.118;2023-01-08T09:59:40;14.93;;;10.63;;
8331;SDS011;4203;48.144;14.118;2023-01-08T10:02:12;14.80;;;10.97;;
8331;SDS011;4203;48.144;14.118;2023-01-08T10:04:41;16.67;;;10.80;;
8331;SDS011;4203;48.144;14.118;2023-01-08T10:07:11;15.57;;;9.67;;
8331;SDS011;4203;48.144;14.118;2023-01-08T10:09:46;15.13;;;10.13;;
8331;SDS011;4203;48.144;14.118;2023-01-08T10:12:15;14.80;;;9.87;;
8331;SDS011;4203;48.144;14.118;2023-01-08T10:14:53;18.93;;;10.63;;
8331;SDS011;4203;48.144;14.118;2023-01-08T10:17:25;14.97;;;9.33;;
8331;SDS011;4203;48.144;14.118;2023-01-08T10:19:56;15.13;;;9.87;;
8331;SDS011;4203;48.144;14.118;2023-01-08T10:22:24;15.57;;;9.87;;
8331;SDS011;4203;48.144;14.118;2023-01-08T10:25:02;15.50;;;10.23;;
8331;SDS011;4203;48.144;14.118;2023-01-08T10:27:35;15.47;;;10.40;;
8331;SDS011;4203;48.144;14.118;2023-01-08T10:30:15;14.53;;;9.90;;
8331;SDS011;4203;48.144;14.118;2023-01-08T10:32:49;14.77;;;10.13;;
8331;SDS011;4203;48.144;14.118;2023-01-08T10:35:19;14.73;;;10.10;;
8331;SDS011;4203;48.144;14.118;2023-01-08T10:37:49;14.37;;;10.27;;
8331;SDS011;4203;48.144;14.118;2023-01-08T10:40:19;16.23;;;10.10;;
8331;SDS011;4203;48.144;14.118;2023-01-08T10:42:50;12.80;;;8.97;;
8331;SDS011;4203;48.144;14.118;2023-01-08T10:45:20;21.13;;;11.47;;
8331;SDS011;4203;48.144;14.118;2023-01-08T10:47:51;15.20;;;9.70;;
8331;SDS011;4203;48.144;14.118;2023-01-08T10:50:23;15.40;;;9.90;;
8331;SDS011;4203;48.144;14.118;2023-01-08T10:52:53;16.97;;;11.03;;
8331;SDS011;4203;48.144;14.118;2023-01-08T10:55:22;15.17;;;10.00;;
8331;SDS011;4203;48.144;14.118;2023-01-08T10:57:52;13.83;;;10.00;;
8331;SDS011;4203;48.144;14.118;2023-01-08T11:00:26;12.90;;;9.17;;
8331;SDS011;4203;48.144;14.118;2023-01-08T11:02:55;14.87;;;9.33;;
8331;SDS011;4203;48.144;14.118;2023-01-08T11:05:27;12.50;;;8.90;;
8331;SDS011;4203;48.144;14.118;2023-01-08T11:07:57;13.00;;;9.33;;
8331;SDS011;4203;48.144;14.118;2023-01-08T11:10:26;17.23;;;9.23;;
8331;SDS011;4203;48.144;14.118;2023-01-08T11:12:55;12.83;;;9.43;;
8331;SDS011;4203;48.144;14.118;2023-01-08T11:15:29;11.90;;;9.23;;
8331;SDS011;4203;48.144;14.118;2023-01-08T11:20:47;12.90;;;9.20;;
8331;SDS011;4203;48.144;14.118;2023-01-08T11:23:16;12.57;;;9.27;;
8331;SDS011;4203;48.144;14.118;2023-01-08T11:25:51;15.37;;;9.87;;
8331;SDS011;4203;48.144;14.118;2023-01-08T11:28:27;13.03;;;9.03;;
8331;SDS011;4203;48.144;14.118;2023-01-08T11:31:12;14.00;;;9.30;;
8331;SDS011;4203;48.144;14.118;2023-01-08T11:33:43;14.03;;;9.23;;
8331;SDS011;4203;48.144;14.118;2023-01-08T11:36:15;12.50;;;9.43;;
8331;SDS011;4203;48.144;14.118;2023-01-08T11:38:47;13.40;;;9.40;;
8331;SDS011;4203;48.144;14.118;2023-01-08T11:41:17;14.33;;;9.57;;
8331;SDS011;4203;48.144;14.118;2023-01-08T11:43:58;14.50;;;9.63;;
8331;SDS011;4203;48.144;14.118;2023-01-08T11:46:40;12.23;;;9.07;;
8331;SDS011;4203;48.144;14.118;2023-01-08T11:49:21;15.50;;;9.70;;
8331;SDS011;4203;48.144;14.118;2023-01-08T11:52:05;16.03;;;9.43;;
8331;SDS011;4203;48.144;14.118;2023-01-08T11:54:54;14.67;;;9.87;;
8331;SDS011;4203;48.144;14.118;2023-01-08T11:57:37;16.30;;;9.33;;
8331;SDS011;4203;48.144;14.118;2023-01-08T12:00:30;16.13;;;10.10;;
8331;SDS011;4203;48.144;14.118;2023-01-08T12:03:10;11.87;;;8.53;;
8331;SDS011;4203;48.144;14.118;2023-01-08T12:05:45;12.90;;;9.23;;
8331;SDS011;4203;48.144;14.118;2023-01-08T12:08:18;11.93;;;8.97;;
8331;SDS011;4203;48.144;14.118;2023-01-08T12:10:56;13.03;;;9.27;;
8331;SDS011;4203;48.144;14.118;2023-01-08T12:13:35;13.43;;;9.20;;
8331;SDS011;4203;48.144;14.118;2023-01-08T12:16:14;13.03;;;9.37;;
8331;SDS011;4203;48.144;14.118;2023-01-08T12:18:57;15.43;;;9.80;;
8331;SDS011;4203;48.144;14.118;2023-01-08T12:21:32;15.17;;;9.90;;
8331;SDS011;4203;48.144;14.118;2023-01-08T12:24:10;12.73;;;9.47;;
8331;SDS011;4203;48.144;14.118;2023-01-08T12:26:48;14.50;;;10.47;;
8331;SDS011;4203;48.144;14.118;2023-01-08T12:29:29;15.43;;;9.60;;
8331;SDS011;4203;48.144;14.118;2023-01-08T12:34:59;17.43;;;11.13;;
8331;SDS011;4203;48.144;14.118;2023-01-08T12:37:30;15.43;;;10.40;;
8331;SDS011;4203;48.144;14.118;2023-01-08T12:40:11;15.20;;;10.60;;
8331;SDS011;4203;48.144;14.118;2023-01-08T12:42:41;14.57;;;10.30;;
8331;SDS011;4203;48.144;14.118;2023-01-08T12:45:13;13.90;;;9.87;;
8331;SDS011;4203;48.144;14.118;2023-01-08T12:47:44;13.87;;;9.77;;
8331;SDS011;4203;48.144;14.118;2023-01-08T12:50:26;16.73;;;10.57;;
8331;SDS011;4203;48.144;14.118;2023-01-08T12:53:06;17.10;;;10.93;;
8331;SDS011;4203;48.144;14.118;2023-01-08T12:55:40;13.83;;;9.93;;
8331;SDS011;4203;48.144;14.118;2023-01-08T12:58:16;17.43;;;10.67;;
8331;SDS011;4203;48.144;14.118;2023-01-08T13:00:54;19.93;;;10.57;;
8331;SDS011;4203;48.144;14.118;2023-01-08T13:03:27;16.17;;;10.13;;
8331;SDS011;4203;48.144;14.118;2023-01-08T13:06:10;15.67;;;10.37;;
8331;SDS011;4203;48.144;14.118;2023-01-08T13:08:40;15.77;;;10.07;;
8331;SDS011;4203;48.144;14.118;2023-01-08T13:11:10;15.50;;;10.50;;
8331;SDS011;4203;48.144;14.118;2023-01-08T13:13:39;16.50;;;10.57;;
8331;SDS011;4203;48.144;14.118;2023-01-08T13:16:17;17.77;;;11.60;;
8331;SDS011;4203;48.144;14.118;2023-01-08T13:18:52;15.93;;;10.70;;
8331;SDS011;4203;48.144;14.118;2023-01-08T13:21:33;14.90;;;9.97;;
8331;SDS011;4203;48.144;14.118;2023-01-08T13:24:03;13.90;;;10.03;;
8331;SDS011;4203;48.144;14.118;2023-01-08T13:26:46;14.60;;;10.17;;
8331;SDS011;4203;48.144;14.118;2023-01-08T13:29:24;13.87;;;9.70;;
8331;SDS011;4203;48.144;14.118;2023-01-08T13:32:22;12.23;;;9.63;;
8331;SDS011;4203;48.144;14.118;2023-01-08T13:37:49;12.07;;;9.43;;
8331;SDS011;4203;48.144;14.118;2023-01-08T13:43:22;12.43;;;9.17;;
8331;SDS011;4203;48.144;14.118;2023-01-08T13:46:02;14.90;;;10.80;;
8331;SDS011;4203;48.144;14.118;2023-01-08T13:48:33;12.33;;;9.30;;
8331;SDS011;4203;48.144;14.118;2023-01-08T13:51:02;13.33;;;9.83;;
8331;SDS011;4203;48.144;14.118;2023-01-08T13:53:31;12.30;;;8.77;;
8331;SDS011;4203;48.144;14.118;2023-01-08T13:56:00;11.00;;;8.63;;
8331;SDS011;4203;48.144;14.118;2023-01-08T13:58:31;12.40;;;9.40;;
8331;SDS011;4203;48.144;14.118;2023-01-08T14:01:02;10.13;;;8.00;;
8331;SDS011;4203;48.144;14.118;2023-01-08T14:03:31;10.27;;;8.80;;
8331;SDS011;4203;48.144;14.118;2023-01-08T14:06:04;11.40;;;8.60;;
8331;SDS011;4203;48.144;14.118;2023-01-08T14:08:34;10.47;;;8.47;;
8331;SDS011;4203;48.144;14.118;2023-01-08T14:11:01;9.70;;;8.33;;
8331;SDS011;4203;48.144;14.118;2023-01-08T14:13:30;13.73;;;9.27;;
8331;SDS011;4203;48.144;14.118;2023-01-08T14:16:02;11.03;;;9.00;;
8331;SDS011;4203;48.144;14.118;2023-01-08T14:18:31;11.97;;;8.67;;
8331;SDS011;4203;48.144;14.118;2023-01-08T14:20:59;11.73;;;9.37;;
8331;SDS011;4203;48.144;14.118;2023-01-08T14:23:27;11.47;;;9.13;;
8331;SDS011;4203;48.144;14.118;2023-01-08T14:25:58;10.33;;;9.10;;
8331;SDS011;4203;48.144;14.118;2023-01-08T14:28:29;9.73;;;8.13;;
8331;SDS011;4203;48.144;14.118;2023-01-08T14:30:56;13.30;;;9.53;;
8331;SDS011;4203;48.144;14.118;2023-01-08T14:33:25;11.40;;;9.07;;
8331;SDS011;4203;48.144;14.118;2023-01-08T14:35:58;11.27;;;9.07;;
8331;SDS011;4203;48.144;14.118;2023-01-08T14:38:26;13.53;;;9.63;;
8331;SDS011;4203;48.144;14.118;2023-01-08T14:40:57;11.80;;;8.97;;
8331;SDS011;4203;48.144;14.118;2023-01-08T14:43:28;14.00;;;9.90;;
8331;SDS011;4203;48.144;14.118;2023-01-08T14:45:59;15.67;;;9.87;;
8331;SDS011;4203;48.144;14.118;2023-01-08T14:48:28;13.57;;;9.87;;
8331;SDS011;4203;48.144;14.118;2023-01-08T14:51:05;14.73;;;10.23;;
8331;SDS011;4203;48.144;14.118;2023-01-08T14:53:35;13.27;;;9.80;;
8331;SDS011;4203;48.144;14.118;2023-01-08T14:56:05;13.43;;;10.20;;
8331;SDS011;4203;48.144;14.118;2023-01-08T14:58:37;12.97;;;9.50;;
8331;SDS011;4203;48.144;14.118;2023-01-08T15:01:07;13.13;;;10.27;;
8331;SDS011;4203;48.144;14.118;2023-01-08T15:03:41;17.77;;;12.00;;
8331;SDS011;4203;48.144;14.118;2023-01-08T15:06:09;14.47;;;10.53;;
8331;SDS011;4203;48.144;14.118;2023-01-08T15:08:38;17.53;;;11.10;;